Time;durP1;ratioP1;P1;durP2;ratioP2;P2;SDS_P1;SDS_P2;PMS_P1;PMS_P2;Temp;Humidity;BMP_temperature;BMP_pressure;BME280_temperature;BME280_humidity;BME280_pressure;Samples;Min_cycle;Max_cycle;Signal;HPM_P1;HPM_P2
2022/06/05 00:01:29;;;;;;;;;16.33;16.33;;;;;21.03;100.00;100683.50;6264558;22;45931;-87
2022/06/05 00:04:12;;;;;;;;;21.67;21.67;;;;;20.87;100.00;100680.38;6289872;22;45251;-88
2022/06/05 00:07:07;;;;;;;;;17.33;16.00;;;;;20.96;100.00;100693.59;6292470;22;45208;-88
2022/06/05 00:09:50;;;;;;;;;20.00;17.00;;;;;20.94;100.00;100684.66;6290538;22;44806;-87
2022/06/05 00:12:18;;;;;;;;;12.00;12.00;;;;;20.83;100.00;100689.50;6289554;22;47080;-85
2022/06/05 00:14:44;;;;;;;;;14.00;14.00;;;;;20.64;100.00;100677.44;6264740;22;45299;-85
2022/06/05 00:17:21;;;;;;;;;13.33;13.33;;;;;20.73;100.00;100647.47;6293287;22;45389;-86
2022/06/05 00:19:51;;;;;;;;;15.00;14.00;;;;;20.94;100.00;100695.47;6292377;22;45355;-86
2022/06/05 00:22:17;;;;;;;;;14.33;14.33;;;;;20.81;100.00;100680.56;6291171;22;45258;-86
2022/06/05 00:24:43;;;;;;;;;16.00;16.00;;;;;20.86;100.00;100673.19;6263871;22;45575;-86
2022/06/05 00:27:18;;;;;;;;;19.00;16.00;;;;;21.09;100.00;100679.75;6264053;22;44794;-86
2022/06/05 00:30:02;;;;;;;;;17.00;17.00;;;;;21.10;100.00;100674.25;6263778;22;45285;-87
2022/06/05 00:32:47;;;;;;;;;15.67;15.67;;;;;21.08;100.00;100672.53;6291091;22;45278;-86
2022/06/05 00:35:16;;;;;;;;;16.00;15.00;;;;;20.99;100.00;100662.91;6264521;22;44897;-86
2022/06/05 00:38:02;;;;;;;;;18.67;18.00;;;;;21.07;100.00;100671.66;6290323;22;45398;-85
2022/06/05 00:40:49;;;;;;;;;17.00;15.67;;;;;20.93;100.00;100666.66;6291108;22;45465;-86
2022/06/05 00:43:18;;;;;;;;;17.00;17.00;;;;;20.85;100.00;100628.16;6265400;22;45295;-86
2022/06/05 00:45:45;;;;;;;;;17.00;17.00;;;;;20.78;100.00;100643.69;6266118;22;45174;-85
2022/06/05 00:48:11;;;;;;;;;15.33;15.00;;;;;20.74;100.00;100622.19;6292444;22;45206;-85
2022/06/05 00:50:40;;;;;;;;;16.67;16.67;;;;;20.77;100.00;100614.88;6288549;22;45393;-88
2022/06/05 00:53:08;;;;;;;;;15.67;15.33;;;;;21.02;100.00;100648.38;6291267;22;45242;-87
2022/06/05 00:55:43;;;;;;;;;17.00;16.00;;;;;20.95;100.00;100628.78;6305831;22;45219;-86
2022/06/05 00:58:09;;;;;;;;;12.33;12.33;;;;;20.85;100.00;100630.88;6290183;22;44683;-86
2022/06/05 01:00:40;;;;;;;;;12.33;11.67;;;;;21.01;100.00;100643.94;6310275;22;45055;-87
2022/06/05 01:03:09;;;;;;;;;13.67;13.67;;;;;20.97;100.00;100641.31;6283967;22;45412;-87
2022/06/05 01:05:35;;;;;;;;;16.00;16.00;;;;;20.85;100.00;100640.81;6283913;22;45953;-87
2022/06/05 01:08:01;;;;;;;;;15.00;14.00;;;;;20.77;100.00;100624.81;6286302;22;45456;-87
2022/06/05 01:10:52;;;;;;;;;11.33;11.33;;;;;20.89;100.00;100626.25;6284455;22;45397;-86
2022/06/05 01:13:40;;;;;;;;;19.33;19.33;;;;;20.93;100.00;100627.94;6262150;22;46768;-87
2022/06/05 01:16:23;;;;;;;;;15.00;15.00;;;;;20.86;100.00;100627.22;6288509;22;45730;-86
2022/06/05 01:18:55;;;;;;;;;16.00;15.00;;;;;20.80;100.00;100613.88;6314648;22;45349;-86
2022/06/05 01:21:37;;;;;;;;;14.00;14.00;;;;;20.80;100.00;100604.91;6288708;22;45334;-86
2022/06/05 01:24:36;;;;;;;;;12.00;12.00;;;;;20.81;100.00;100607.56;6287167;22;47329;-86
2022/06/05 01:27:10;;;;;;;;;14.33;12.00;;;;;20.75;100.00;100597.81;6288316;22;45223;-86
2022/06/05 01:29:44;;;;;;;;;13.33;11.33;;;;;20.75;100.00;100594.25;6313982;22;45317;-86
2022/06/05 01:32:14;;;;;;;;;15.00;13.67;;;;;20.74;100.00;100587.97;6289671;22;45799;-85
2022/06/05 01:34:53;;;;;;;;;15.00;14.67;;;;;20.71;100.00;100589.88;6291731;22;45089;-87
2022/06/05 01:37:34;;;;;;;;;12.00;11.00;;;;;20.72;100.00;100586.22;6289075;22;45621;-86
2022/06/05 01:40:05;;;;;;;;;15.00;15.00;;;;;20.59;100.00;100574.91;6316382;22;45285;-86
2022/06/05 01:42:37;;;;;;;;;12.00;12.00;;;;;20.71;100.00;100576.34;6316566;22;45306;-86
2022/06/05 01:45:10;;;;;;;;;15.00;13.33;;;;;20.44;100.00;100537.50;6316746;22;48114;-87
2022/06/05 01:47:41;;;;;;;;;14.67;14.67;;;;;20.44;100.00;100543.81;6289244;22;45783;-86
2022/06/05 01:50:25;;;;;;;;;21.00;19.00;;;;;20.61;100.00;100572.16;6290868;22;45370;-86
2022/06/05 01:52:57;;;;;;;;;16.33;16.00;;;;;20.60;100.00;100567.66;6290235;22;45136;-86
2022/06/05 01:55:44;;;;;;;;;15.00;15.00;;;;;20.64;100.00;100555.84;6291136;22;45012;-86
2022/06/05 01:58:16;;;;;;;;;14.33;14.33;;;;;20.38;100.00;100523.25;6260613;22;45762;-86
2022/06/05 02:00:50;;;;;;;;;17.67;16.00;;;;;20.46;100.00;100547.34;6261589;22;45152;-85
2022/06/05 02:03:19;;;;;;;;;18.67;17.00;;;;;20.26;100.00;100495.72;6261255;22;45416;-86
2022/06/05 02:06:26;;;;;;;;;15.67;15.67;;;;;20.60;100.00;100554.16;6261740;22;47114;-86
2022/06/05 02:09:05;;;;;;;;;17.00;17.00;;;;;20.54;100.00;100550.69;6261388;22;44804;-87
2022/06/05 02:11:32;;;;;;;;;13.00;13.00;;;;;20.44;100.00;100541.09;6260883;22;45343;-87
2022/06/05 02:14:08;;;;;;;;;17.00;16.00;;;;;20.37;100.00;100515.19;6261237;22;45324;-87
2022/06/05 02:16:36;;;;;;;;;15.67;15.67;;;;;20.39;100.00;100529.53;6262351;22;46866;-86
2022/06/05 02:19:05;;;;;;;;;15.00;13.00;;;;;20.27;100.00;100500.19;6290173;22;45196;-86
2022/06/05 02:21:32;;;;;;;;;16.33;15.00;;;;;20.18;100.00;100496.84;6289754;22;45491;-89
2022/06/05 02:23:58;;;;;;;;;14.67;13.33;;;;;20.07;100.00;100473.78;6262376;22;45493;-87
2022/06/05 02:26:27;;;;;;;;;15.00;14.00;;;;;20.28;100.00;100515.44;6261702;22;46621;-87
2022/06/05 02:28:53;;;;;;;;;13.67;13.67;;;;;19.99;100.00;100464.09;6260553;22;45923;-87
2022/06/05 02:32:02;;;;;;;;;12.67;12.00;;;;;20.37;100.00;100504.38;6288194;22;44769;-87
2022/06/05 02:34:41;;;;;;;;;14.33;14.33;;;;;20.41;100.00;100511.47;6289039;22;45326;-86
2022/06/05 02:37:33;;;;;;;;;15.67;15.67;;;;;20.47;100.00;100508.56;6261344;22;45334;-86
2022/06/05 02:40:30;;;;;;;;;18.00;15.33;;;;;20.30;100.00;100486.59;6261436;22;44959;-86
2022/06/05 02:43:14;;;;;;;;;14.67;13.33;;;;;20.34;100.00;100493.66;6289126;22;45310;-86
2022/06/05 02:45:43;;;;;;;;;16.00;15.33;;;;;20.37;100.00;100494.47;6261007;22;44785;-86
2022/06/05 02:48:08;;;;;;;;;13.33;13.33;;;;;20.18;100.00;100487.88;6260132;22;46829;-87
2022/06/05 02:50:52;;;;;;;;;16.33;16.33;;;;;20.01;100.00;100452.38;6287044;22;45432;-87
2022/06/05 02:53:18;;;;;;;;;14.00;12.33;;;;;19.96;100.00;100493.00;6259735;22;45125;-87
2022/06/05 02:55:43;;;;;;;;;15.00;15.00;;;;;19.92;100.00;100491.31;6272001;22;45371;-86
2022/06/05 02:58:12;;;;;;;;;16.33;16.33;;;;;19.80;100.00;100459.28;6286735;22;46944;-86
2022/06/05 03:00:39;;;;;;;;;14.67;14.67;;;;;19.90;100.00;100499.47;6289019;22;45298;-86
2022/06/05 03:05:49;;;;;;;;;14.67;14.67;;;;;19.73;100.00;100501.72;6289931;22;45822;-87
2022/06/05 03:08:17;;;;;;;;;17.00;17.00;;;;;19.82;100.00;100506.88;6260355;22;45411;-87
2022/06/05 03:10:42;;;;;;;;;15.00;14.00;;;;;19.57;100.00;100479.63;6259680;22;45256;-87
2022/06/05 03:13:09;;;;;;;;;16.00;14.00;;;;;19.76;100.00;100504.34;6289158;22;45554;-87
2022/06/05 03:15:34;;;;;;;;;16.33;16.33;;;;;19.69;100.00;100503.63;6261147;22;45648;-87
2022/06/05 03:18:00;;;;;;;;;11.00;10.00;;;;;19.60;100.00;100490.38;6261879;22;47373;-86
2022/06/05 03:20:26;;;;;;;;;15.67;15.67;;;;;19.75;100.00;100511.56;6261112;22;45335;-86
2022/06/05 03:22:52;;;;;;;;;16.33;16.33;;;;;19.61;100.00;100475.94;6289695;22;45275;-87
2022/06/05 03:25:23;;;;;;;;;19.67;18.67;;;;;19.83;100.00;100503.25;6287752;22;44751;-87
2022/06/05 03:27:48;;;;;;;;;16.67;15.33;;;;;19.53;100.00;100472.56;6288796;22;45360;-87
2022/06/05 03:30:15;;;;;;;;;19.00;16.33;;;;;19.52;100.00;100481.59;6260128;22;45234;-87
2022/06/05 03:32:46;;;;;;;;;17.00;16.33;;;;;19.81;100.00;100515.00;6286143;22;45452;-87
2022/06/05 03:35:11;;;;;;;;;12.67;11.67;;;;;19.73;100.00;100502.63;6285869;22;45496;-87
2022/06/05 03:38:21;;;;;;;;;18.67;18.00;;;;;20.03;100.00;100521.56;6259843;22;46572;-87
2022/06/05 03:40:46;;;;;;;;;17.33;15.33;;;;;19.81;100.00;100505.09;6260179;22;45267;-86
2022/06/05 03:43:12;;;;;;;;;17.33;16.33;;;;;19.76;100.00;100485.47;6261303;22;45402;-87
2022/06/05 03:45:38;;;;;;;;;15.00;14.00;;;;;19.87;100.00;100504.91;6263007;22;45322;-86
2022/06/05 03:48:04;;;;;;;;;17.00;17.00;;;;;19.95;100.00;100519.09;6260721;22;47594;-86
2022/06/05 03:51:25;;;;;;;;;16.67;16.33;;;;;20.16;100.00;100512.19;6261269;22;45378;-87
2022/06/05 03:53:51;;;;;;;;;15.00;13.33;;;;;19.83;100.00;100497.84;6290401;22;45367;-87
2022/06/05 03:56:19;;;;;;;;;15.00;15.00;;;;;19.81;100.00;100502.41;6308238;22;45402;-87
2022/06/05 03:58:46;;;;;;;;;15.33;15.00;;;;;19.72;100.00;100511.66;6312806;22;46861;-86
2022/06/05 04:01:14;;;;;;;;;17.67;15.67;;;;;19.64;100.00;100505.53;6286847;22;45334;-86
2022/06/05 04:03:40;;;;;;;;;15.67;14.67;;;;;19.75;100.00;100527.75;6284246;22;45275;-86
2022/06/05 04:06:11;;;;;;;;;16.00;16.00;;;;;19.76;100.00;100510.63;6311610;22;45451;-86
2022/06/05 04:08:37;;;;;;;;;15.00;15.00;;;;;19.85;100.00;100536.47;6286408;22;46929;-86
2022/06/05 04:11:11;;;;;;;;;14.67;14.67;;;;;19.99;100.00;100536.09;6286782;22;45114;-86
2022/06/05 04:13:37;;;;;;;;;13.67;12.67;;;;;20.02;100.00;100556.69;6286953;22;45255;-87
2022/06/05 04:16:10;;;;;;;;;18.33;17.67;;;;;19.92;100.00;100518.31;6315112;22;45705;-86
2022/06/05 04:18:35;;;;;;;;;16.00;16.00;;;;;19.94;100.00;100538.06;6288670;22;47168;-87
2022/06/05 04:21:06;;;;;;;;;12.67;12.67;;;;;19.86;100.00;100499.59;6314583;22;45194;-86
2022/06/05 04:23:31;;;;;;;;;15.00;13.00;;;;;19.72;100.00;100500.84;6315493;22;45468;-86
2022/06/05 04:29:26;;;;;;;;;12.67;12.67;;;;;19.95;100.00;100573.06;6290122;22;45230;-86
2022/06/05 04:31:52;;;;;;;;;15.00;13.67;;;;;19.74;100.00;100544.88;6289524;22;45151;-86
2022/06/05 04:34:22;;;;;;;;;14.67;14.67;;;;;20.01;100.00;100572.03;6290639;22;45214;-86
2022/06/05 04:36:48;;;;;;;;;13.33;13.33;;;;;19.70;100.00;100529.66;6289402;22;45533;-86
2022/06/05 04:42:36;;;;;;;;;13.33;13.33;;;;;20.01;100.00;100577.41;6291522;22;45437;-87
2022/06/05 04:45:07;;;;;;;;;15.00;15.00;;;;;20.15;100.00;100575.22;6314973;22;45317;-87
2022/06/05 04:47:33;;;;;;;;;14.33;13.67;;;;;19.87;100.00;100542.72;6316693;22;44703;-87
2022/06/05 04:49:58;;;;;;;;;16.33;16.33;;;;;20.27;100.00;100597.41;6314063;22;47167;-87
2022/06/05 04:52:25;;;;;;;;;18.67;17.00;;;;;20.32;100.00;100593.66;6291891;22;45322;-87
2022/06/05 04:54:51;;;;;;;;;14.67;12.00;;;;;20.41;100.00;100597.91;6288577;22;45444;-87
2022/06/05 04:57:16;;;;;;;;;14.00;12.33;;;;;20.45;100.00;100599.59;6288162;22;45357;-87
2022/06/05 04:59:42;;;;;;;;;14.33;14.33;;;;;20.42;100.00;100587.97;6284647;22;45313;-87
2022/06/05 05:02:07;;;;;;;;;13.33;13.00;;;;;20.56;100.00;100612.78;6314488;22;44791;-87
2022/06/05 05:04:33;;;;;;;;;12.33;12.00;;;;;20.51;100.00;100588.59;6312960;22;45291;-87
2022/06/05 05:06:58;;;;;;;;;14.33;13.67;;;;;20.63;100.00;100600.03;6314338;22;45396;-87
2022/06/05 05:09:24;;;;;;;;;14.67;14.67;;;;;20.56;100.00;100581.25;6289238;22;46834;-87
2022/06/05 05:11:49;;;;;;;;;17.67;17.00;;;;;20.42;100.00;100586.19;6315012;22;45677;-87
2022/06/05 05:14:15;;;;;;;;;13.33;13.33;;;;;20.58;100.00;100602.81;6288121;22;45367;-88
2022/06/05 05:16:41;;;;;;;;;16.00;15.00;;;;;20.52;100.00;100584.97;6288416;22;45230;-86
2022/06/05 05:19:08;;;;;;;;;14.67;14.67;;;;;20.61;100.00;100577.56;6289781;22;45284;-87
2022/06/05 05:21:33;;;;;;;;;17.00;16.00;;;;;20.65;100.00;100580.13;6289867;22;45352;-87
2022/06/05 05:23:59;;;;;;;;;13.67;12.33;;;;;20.56;100.00;100547.94;6289061;22;45345;-87
2022/06/05 05:26:31;;;;;;;;;13.33;13.33;;;;;21.02;100.00;100597.91;6314685;22;45704;-87
2022/06/05 05:29:00;;;;;;;;;15.00;13.33;;;;;20.91;100.00;100559.53;6316104;22;48094;-87
2022/06/05 05:31:31;;;;;;;;;16.00;15.67;;;;;21.23;100.00;100600.84;6289130;22;45469;-86
2022/06/05 05:33:57;;;;;;;;;14.67;13.00;;;;;21.05;100.00;100572.59;6315058;22;45659;-86
2022/06/05 05:36:24;;;;;;;;;12.00;12.00;;;;;21.20;100.00;100561.28;6288282;22;45389;-86
2022/06/05 05:44:20;;;;;;;;;11.33;11.33;;;;;21.86;100.00;100612.34;6290582;22;44794;-87
2022/06/05 05:46:47;;;;;;;;;12.00;12.00;;;;;21.84;100.00;100574.47;6290570;22;44750;-87
2022/06/05 05:49:14;;;;;;;;;13.00;13.00;;;;;21.94;100.00;100613.81;6289630;22;45362;-87
2022/06/05 05:51:40;;;;;;;;;14.00;13.00;;;;;21.63;100.00;100565.25;6315849;22;44728;-87
2022/06/05 05:54:06;;;;;;;;;13.00;13.00;;;;;21.60;100.00;100575.34;6313728;22;45657;-87
2022/06/05 05:56:32;;;;;;;;;12.67;12.67;;;;;21.77;100.00;100611.72;6290242;22;45232;-88
2022/06/05 05:58:58;;;;;;;;;14.33;14.33;;;;;21.76;100.00;100600.94;6260696;22;46604;-87
2022/06/05 06:01:25;;;;;;;;;14.00;13.67;;;;;21.87;100.00;100611.38;6290900;22;44753;-86
2022/06/05 06:03:50;;;;;;;;;17.00;17.00;;;;;21.78;100.00;100599.94;6262815;22;44808;-87
2022/06/05 06:06:25;;;;;;;;;14.67;13.67;;;;;21.75;100.00;100564.88;6262500;22;45587;-86
2022/06/05 06:08:51;;;;;;;;;16.00;14.00;;;;;21.60;100.00;100570.78;6262637;22;47461;-87
2022/06/05 06:11:18;;;;;;;;;14.33;13.33;;;;;21.73;100.00;100591.09;6263122;22;45448;-87
2022/06/05 06:13:44;;;;;;;;;15.67;12.67;;;;;21.91;100.00;100613.91;6291776;22;45428;-86
2022/06/05 06:16:09;;;;;;;;;14.00;12.33;;;;;21.95;100.00;100614.69;6237241;22;45514;-87
2022/06/05 06:18:35;;;;;;;;;14.00;14.00;;;;;21.74;100.00;100560.38;6261890;22;46714;-87
2022/06/05 06:21:07;;;;;;;;;14.33;13.00;;;;;21.82;100.00;100573.63;6237429;22;45334;-87
2022/06/05 06:23:33;;;;;;;;;13.00;13.00;;;;;22.07;100.00;100600.72;6263164;22;45399;-87
2022/06/05 06:25:59;;;;;;;;;12.33;11.33;;;;;22.12;100.00;100587.91;6263404;22;44821;-87
2022/06/05 06:28:24;;;;;;;;;13.67;13.00;;;;;22.08;100.00;100572.72;6263296;22;47898;-87
2022/06/05 06:30:50;;;;;;;;;11.67;11.00;;;;;22.21;100.00;100589.38;6291964;22;45286;-87
2022/06/05 06:33:15;;;;;;;;;12.50;11.50;;;;;22.22;100.00;100568.59;6264117;22;45195;-87
2022/06/05 06:35:41;;;;;;;;;13.00;11.33;;;;;22.32;100.00;100573.66;6263971;22;45363;-87
2022/06/05 06:38:07;;;;;;;;;10.67;10.67;;;;;22.24;100.00;100551.41;6250704;22;47017;-87
2022/06/05 06:40:35;;;;;;;;;11.00;11.00;;;;;22.52;100.00;100583.75;6289517;22;45014;-87
2022/06/05 06:43:09;;;;;;;;;11.00;11.00;;;;;22.58;100.00;100588.03;6264642;22;45378;-86
2022/06/05 06:46:24;;;;;;;;;13.00;12.33;;;;;22.77;100.00;100582.81;6288863;22;45242;-87
2022/06/05 06:48:59;;;;;;;;;11.67;11.67;;;;;22.80;100.00;100581.78;6263299;22;47062;-87
2022/06/05 06:51:25;;;;;;;;;9.67;9.67;;;;;22.66;100.00;100568.78;6262366;22;45619;-87
2022/06/05 06:53:51;;;;;;;;;11.00;10.00;;;;;22.68;100.00;100561.47;6262826;22;45469;-86
2022/06/05 06:56:27;;;;;;;;;10.67;9.67;;;;;22.92;100.00;100560.50;6255550;22;45478;-87
2022/06/05 07:02:24;;;;;;;;;9.00;9.00;;;;;23.19;100.00;100568.50;6285821;22;45414;-87
2022/06/05 07:04:50;;;;;;;;;10.00;10.00;;;;;22.94;100.00;100531.47;6257689;22;44818;-87
2022/06/05 07:07:15;;;;;;;;;7.00;7.00;;;;;23.04;100.00;100520.28;6283313;22;45487;-87
2022/06/05 07:09:41;;;;;;;;;8.67;8.67;;;;;23.32;100.00;100564.31;6285958;22;45424;-87
2022/06/05 07:12:07;;;;;;;;;8.00;8.00;;;;;23.20;100.00;100535.00;6259252;22;45386;-87
2022/06/05 07:14:35;;;;;;;;;10.67;10.67;;;;;23.60;100.00;100557.72;6263855;22;45141;-87
2022/06/05 07:17:01;;;;;;;;;12.67;11.33;;;;;23.78;100.00;100571.50;6292741;22;44773;-87
2022/06/05 07:19:30;;;;;;;;;10.67;10.67;;;;;23.93;100.00;100557.22;6289616;22;47500;-87
2022/06/05 07:21:55;;;;;;;;;9.00;9.00;;;;;23.88;100.00;100515.84;6264444;22;45488;-87
2022/06/05 07:24:27;;;;;;;;;13.67;12.00;;;;;24.30;100.00;100548.31;6291537;22;44791;-88
2022/06/05 07:30:14;;;;;;;;;10.00;10.00;;;;;24.29;100.00;100532.06;6292011;22;45313;-87
2022/06/05 07:32:40;;;;;;;;;11.00;11.00;;;;;24.45;100.00;100560.31;6289124;22;44970;-87
2022/06/05 07:35:08;;;;;;;;;13.33;10.33;;;;;24.46;100.00;100553.03;6265562;22;45365;-87
2022/06/05 07:37:34;;;;;;;;;12.00;11.00;;;;;24.59;100.00;100524.34;6266755;22;45068;-87
2022/06/05 07:39:59;;;;;;;;;9.67;9.67;;;;;24.83;100.00;100522.28;6264584;22;46365;-86
2022/06/05 07:42:25;;;;;;;;;9.00;9.00;;;;;25.05;100.00;100524.84;6292264;22;45702;-86
2022/06/05 07:44:50;;;;;;;;;7.67;7.67;;;;;25.37;100.00;100551.41;6292483;22;44868;-86
2022/06/05 07:47:16;;;;;;;;;8.67;8.00;;;;;25.54;100.00;100525.09;6289353;22;45328;-87
2022/06/05 07:49:41;;;;;;;;;8.00;8.00;;;;;25.91;100.00;100541.38;6287847;22;45965;-86
2022/06/05 07:55:04;;;;;;;;;8.67;8.33;;;;;25.97;100.00;100560.13;6289027;22;45329;-86
2022/06/05 07:57:31;;;;;;;;;8.00;8.00;;;;;25.80;100.00;100561.00;6285822;22;45402;-86
2022/06/05 07:59:56;;;;;;;;;10.33;10.00;;;;;25.19;100.00;100515.97;6285578;22;47710;-87
2022/06/05 08:02:26;;;;;;;;;10.33;10.33;;;;;25.22;100.00;100540.34;6262609;22;45166;-88
2022/06/05 08:04:55;;;;;;;;;8.33;8.33;;;;;25.25;100.00;100564.69;6263014;22;44713;-87
2022/06/05 08:07:27;;;;;;;;;7.00;7.00;;;;;25.34;100.00;100569.66;6262052;22;45647;-87
2022/06/05 08:09:53;;;;;;;;;10.00;8.67;;;;;25.30;100.00;100554.44;6236349;22;46727;-87
2022/06/05 08:12:21;;;;;;;;;7.00;6.00;;;;;25.19;100.00;100532.31;6261709;22;45373;-88
2022/06/05 08:14:49;;;;;;;;;5.67;5.33;;;;;25.39;100.00;100554.94;6290391;22;44728;-87
2022/06/05 08:17:27;;;;;;;;;4.00;3.00;;;;;25.57;100.00;100564.88;6262614;22;45290;-87
2022/06/05 08:19:54;;;;;;;;;7.00;6.33;;;;;25.60;100.00;100575.63;6263650;22;45542;-88
2022/06/05 08:22:28;;;;;;;;;6.33;6.33;;;;;25.43;100.00;100530.22;6262592;22;45793;-87
2022/06/05 08:24:55;;;;;;;;;7.00;7.00;;;;;25.38;100.00;100543.19;6264137;22;45376;-88
2022/06/05 08:27:25;;;;;;;;;6.33;6.33;;;;;25.44;100.00;100547.44;6263472;22;45271;-86
2022/06/05 08:29:55;;;;;;;;;5.00;5.00;;;;;25.37;100.00;100551.41;6262518;22;45644;-87
2022/06/05 08:32:22;;;;;;;;;7.67;5.67;;;;;25.32;100.00;100585.19;6263321;22;45279;-86
2022/06/05 08:34:49;;;;;;;;;8.33;7.67;;;;;25.11;100.00;100570.78;6263575;22;44702;-87
2022/06/05 08:43:09;;;;;;;;;4.00;4.00;;;;;25.25;100.00;100608.25;6289842;22;44700;-88
2022/06/05 08:45:52;;;;;;;;;5.33;5.33;;;;;24.82;100.00;100577.63;6290575;22;45403;-87
2022/06/05 08:48:44;;;;;;;;;6.67;5.67;;;;;24.82;100.00;100612.13;6263681;22;45431;-88
2022/06/05 08:51:49;;;;;;;;;7.00;6.33;;;;;24.61;100.00;100617.59;6239147;22;47651;-88
2022/06/05 08:54:44;;;;;;;;;9.00;8.00;;;;;24.49;100.00;100615.41;6249959;22;45344;-88
2022/06/05 08:57:39;;;;;;;;;4.33;4.33;;;;;24.35;100.00;100588.88;6261047;22;45082;-86
2022/06/05 09:00:17;;;;;;;;;6.67;6.67;;;;;24.42;100.00;100603.97;6278350;22;45575;-85
2022/06/05 09:03:10;;;;;;;;;7.00;7.00;;;;;24.29;100.00;100562.84;6289994;22;45342;-87
2022/06/05 09:05:51;;;;;;;;;7.67;7.00;;;;;24.33;100.00;100597.09;6288174;22;45378;-86
2022/06/05 09:08:20;;;;;;;;;7.33;7.33;;;;;24.08;100.00;100561.13;6288998;22;45275;-87
2022/06/05 09:11:17;;;;;;;;;7.67;6.00;;;;;23.97;100.00;100561.59;6263222;22;45948;-87
2022/06/05 09:13:52;;;;;;;;;8.33;8.33;;;;;23.78;100.00;100593.22;6262488;22;46606;-87
2022/06/05 09:16:26;;;;;;;;;8.33;7.33;;;;;23.55;100.00;100565.19;6290417;22;44771;-87
2022/06/05 09:18:54;;;;;;;;;8.00;8.00;;;;;23.74;100.00;100615.03;6291432;22;44790;-87
2022/06/05 09:21:37;;;;;;;;;9.00;9.00;;;;;23.81;100.00;100587.66;6262241;22;44799;-87
2022/06/05 09:24:23;;;;;;;;;8.00;8.00;;;;;24.34;100.00;100627.88;6288011;22;46866;-87
2022/06/05 09:27:10;;;;;;;;;7.00;6.00;;;;;24.30;100.00;100623.53;6288564;22;44801;-87
2022/06/05 09:29:44;;;;;;;;;9.00;9.00;;;;;24.16;100.00;100626.88;6287336;22;45311;-87
2022/06/05 09:32:59;;;;;;;;;11.00;9.33;;;;;24.10;100.00;100638.88;6290802;22;44761;-87
2022/06/05 09:35:35;;;;;;;;;9.00;9.00;;;;;23.95;100.00;100620.53;6242060;22;45293;-86
2022/06/05 09:38:18;;;;;;;;;8.33;8.33;;;;;24.29;100.00;100663.41;6290469;22;45314;-85
2022/06/05 09:41:03;;;;;;;;;10.00;10.00;;;;;24.26;100.00;100668.09;6287080;22;45334;-87
2022/06/05 09:43:50;;;;;;;;;11.33;10.33;;;;;23.95;100.00;100639.53;6262939;22;45337;-88
2022/06/05 09:46:52;;;;;;;;;10.00;8.67;;;;;24.03;100.00;100672.69;6263117;22;46450;-87
2022/06/05 09:49:39;;;;;;;;;11.67;10.67;;;;;23.94;100.00;100682.13;6288062;22;45379;-87
2022/06/05 09:52:30;;;;;;;;;9.67;9.67;;;;;23.66;100.00;100646.19;6193978;22;45435;-87
2022/06/05 09:55:10;;;;;;;;;9.67;8.00;;;;;23.64;100.00;100642.66;6171637;22;44841;-87
2022/06/05 10:00:32;;;;;;;;;11.67;11.67;;;;;24.00;100.00;100681.00;6224501;22;45414;-86
2022/06/05 10:03:12;;;;;;;;;11.33;11.33;;;;;23.93;100.00;100664.03;6221506;22;45191;-87
2022/06/05 10:05:45;;;;;;;;;12.00;12.00;;;;;23.89;100.00;100667.84;6196883;22;45499;-88
2022/06/05 10:08:10;;;;;;;;;11.33;10.00;;;;;23.97;100.00;100697.41;6197268;22;47414;-88
2022/06/05 10:10:39;;;;;;;;;14.00;14.00;;;;;23.89;100.00;100694.13;6222165;22;45408;-87
2022/06/05 10:13:31;;;;;;;;;15.67;14.33;;;;;23.95;100.00;100710.16;6196607;22;44753;-87
2022/06/05 10:16:09;;;;;;;;;14.00;14.00;;;;;23.73;100.00;100705.63;6197877;22;45459;-86
2022/06/05 10:19:15;;;;;;;;;10.00;10.00;;;;;23.67;100.00;100705.88;6200730;22;47169;-87
2022/06/05 10:21:57;;;;;;;;;14.67;13.00;;;;;23.23;100.00;100664.19;6225046;22;44811;-86
2022/06/05 10:24:37;;;;;;;;;18.33;17.33;;;;;23.51;100.00;100713.75;6200183;22;45454;-87
2022/06/05 10:27:05;;;;;;;;;17.00;15.33;;;;;23.42;100.00;100703.25;6198262;22;45476;-86
2022/06/05 10:29:39;;;;;;;;;14.67;14.67;;;;;23.44;100.00;100717.63;6238199;22;47894;-87
2022/06/05 10:32:14;;;;;;;;;15.33;15.33;;;;;23.16;100.00;100686.16;6261198;22;45191;-87
2022/06/05 10:34:53;;;;;;;;;18.00;16.33;;;;;23.41;100.00;100709.63;6287176;22;45341;-87
2022/06/05 10:37:22;;;;;;;;;17.33;17.33;;;;;23.42;100.00;100716.81;6261458;22;44740;-87
2022/06/05 10:39:53;;;;;;;;;13.33;13.33;;;;;23.60;100.00;100709.78;6288463;22;46030;-87
2022/06/05 10:42:34;;;;;;;;;15.33;14.33;;;;;23.91;100.00;100703.09;6260851;22;45220;-87
2022/06/05 10:45:02;;;;;;;;;18.00;18.00;;;;;24.26;100.00;100717.00;6261911;22;45306;-88
2022/06/05 10:47:40;;;;;;;;;14.67;13.67;;;;;24.78;100.00;100716.56;6261511;22;45489;-87
2022/06/05 10:50:19;;;;;;;;;16.00;15.67;;;;;25.03;100.00;100717.22;6286432;22;47070;-87
2022/06/05 10:53:16;;;;;;;;;17.00;17.00;;;;;25.02;100.00;100714.56;6286397;22;45744;-87
2022/06/05 10:59:42;;;;;;;;;18.00;18.00;;;;;24.78;100.00;100716.56;6286847;22;45727;-87
2022/06/05 11:02:18;;;;;;;;;19.67;19.00;;;;;24.42;100.00;100693.66;6260330;22;46708;-87
2022/06/05 11:04:50;;;;;;;;;19.00;16.67;;;;;24.45;100.00;100709.81;6286842;22;45281;-86
2022/06/05 11:07:32;;;;;;;;;17.00;17.00;;;;;24.24;100.00;100710.75;6286220;22;45262;-88
2022/06/05 11:10:04;;;;;;;;;18.33;18.00;;;;;23.98;100.00;100672.03;6261703;22;44803;-87
2022/06/05 11:15:53;;;;;;;;;19.00;17.67;;;;;23.91;100.00;100722.09;6289739;22;44661;-87
2022/06/05 11:18:39;;;;;;;;;19.33;17.67;;;;;23.86;100.00;100716.00;6257235;22;45486;-86
2022/06/05 11:21:05;;;;;;;;;17.67;17.67;;;;;23.85;100.00;100725.09;6284116;22;45410;-87
2022/06/05 11:23:40;;;;;;;;;19.00;17.67;;;;;23.95;100.00;100699.31;6284724;22;46958;-87
2022/06/05 11:26:24;;;;;;;;;20.33;20.33;;;;;24.06;100.00;100720.59;6258600;22;45394;-87
2022/06/05 11:29:22;;;;;;;;;15.00;15.00;;;;;23.69;100.00;100698.53;6283245;22;45299;-87
2022/06/05 11:32:33;;;;;;;;;18.67;18.67;;;;;23.88;100.00;100719.53;6284549;22;45462;-88
2022/06/05 11:35:35;;;;;;;;;18.33;16.67;;;;;23.87;100.00;100726.78;6136314;23;46595;-87
2022/06/05 11:38:48;;;;;;;;;17.33;17.33;;;;;23.60;100.00;100722.47;6136738;23;45470;-87
2022/06/05 11:41:22;;;;;;;;;20.00;20.00;;;;;23.61;100.00;100732.38;6065789;23;45301;-87
2022/06/05 11:43:52;;;;;;;;;18.00;17.00;;;;;23.47;100.00;100724.75;6101770;23;45374;-88
2022/06/05 11:46:35;;;;;;;;;17.67;16.00;;;;;23.62;100.00;100751.31;6101597;23;46691;-87
2022/06/05 11:49:19;;;;;;;;;16.67;16.67;;;;;23.46;100.00;100726.59;6079346;23;45144;-87
2022/06/05 11:52:04;;;;;;;;;21.33;20.00;;;;;23.63;100.00;100758.53;6103397;23;45268;-87
2022/06/05 11:54:54;;;;;;;;;18.33;16.67;;;;;23.75;100.00;100757.13;6077530;23;45174;-87
2022/06/05 11:57:29;;;;;;;;;19.00;18.00;;;;;23.91;100.00;100752.00;6100432;23;46739;-87
2022/06/05 12:00:30;;;;;;;;;8.67;8.67;;;;;24.07;100.00;100758.56;6101175;23;45443;-88
2022/06/05 12:03:10;;;;;;;;;16.00;16.00;;;;;24.01;100.00;100769.69;6102036;23;45737;-88
2022/06/05 12:06:07;;;;;;;;;15.33;15.00;;;;;23.74;100.00;100739.97;6144522;23;45257;-87
2022/06/05 12:08:37;;;;;;;;;12.67;12.67;;;;;23.93;100.00;100750.09;6166037;23;46960;-88
2022/06/05 12:11:04;;;;;;;;;16.33;16.33;;;;;23.99;100.00;100755.28;6165648;23;44825;-88
2022/06/05 12:13:51;;;;;;;;;17.67;16.67;;;;;24.14;100.00;100770.06;6192053;23;45193;-88
2022/06/05 12:16:31;;;;;;;;;15.67;15.67;;;;;24.08;100.00;100771.19;6259840;22;45403;-87